sensor_id;sensor_type;location;lat;lon;timestamp;P1;durP1;ratioP1;P2;durP2;ratioP2
3046;SDS011;1533;44.816;20.420;2023-05-25T00:01:17;22.03;;;18.07;;
3046;SDS011;1533;44.816;20.420;2023-05-25T00:04:36;20.90;;;16.93;;
3046;SDS011;1533;44.816;20.420;2023-05-25T00:11:30;18.73;;;16.47;;
3046;SDS011;1533;44.816;20.420;2023-05-25T00:17:49;18.77;;;16.20;;
3046;SDS011;1533;44.816;20.420;2023-05-25T00:23:57;19.53;;;17.40;;
3046;SDS011;1533;44.816;20.420;2023-05-25T00:26:36;21.87;;;16.73;;
3046;SDS011;1533;44.816;20.420;2023-05-25T00:29:07;19.90;;;17.53;;
3046;SDS011;1533;44.816;20.420;2023-05-25T00:31:40;19.10;;;16.40;;
3046;SDS011;1533;44.816;20.420;2023-05-25T00:34:26;20.00;;;17.63;;
3046;SDS011;1533;44.816;20.420;2023-05-25T00:37:06;21.30;;;18.10;;
3046;SDS011;1533;44.816;20.420;2023-05-25T00:39:53;21.03;;;18.83;;
3046;SDS011;1533;44.816;20.420;2023-05-25T00:43:07;23.90;;;19.60;;
3046;SDS011;1533;44.816;20.420;2023-05-25T00:46:08;23.53;;;17.90;;
3046;SDS011;1533;44.816;20.420;2023-05-25T00:48:58;21.03;;;17.50;;
3046;SDS011;1533;44.816;20.420;2023-05-25T00:52:09;20.70;;;17.33;;
3046;SDS011;1533;44.816;20.420;2023-05-25T00:55:02;21.67;;;18.87;;
3046;SDS011;1533;44.816;20.420;2023-05-25T00:58:15;19.43;;;17.30;;
3046;SDS011;1533;44.816;20.420;2023-05-25T01:04:21;18.50;;;16.60;;
3046;SDS011;1533;44.816;20.420;2023-05-25T01:07:29;17.70;;;15.87;;
3046;SDS011;1533;44.816;20.420;2023-05-25T01:10:46;20.07;;;16.33;;
3046;SDS011;1533;44.816;20.420;2023-05-25T01:16:54;18.53;;;16.53;;
3046;SDS011;1533;44.816;20.420;2023-05-25T01:19:47;17.87;;;15.97;;
3046;SDS011;1533;44.816;20.420;2023-05-25T01:23:35;19.57;;;16.67;;
3046;SDS011;1533;44.816;20.420;2023-05-25T01:26:09;20.27;;;17.00;;
3046;SDS011;1533;44.816;20.420;2023-05-25T01:28:59;22.23;;;17.20;;
3046;SDS011;1533;44.816;20.420;2023-05-25T01:31:45;26.60;;;17.33;;
3046;SDS011;1533;44.816;20.420;2023-05-25T01:37:55;17.83;;;15.93;;
3046;SDS011;1533;44.816;20.420;2023-05-25T01:44:00;19.60;;;17.50;;
3046;SDS011;1533;44.816;20.420;2023-05-25T01:46:46;22.37;;;19.80;;
3046;SDS011;1533;44.816;20.420;2023-05-25T01:53:25;24.30;;;20.23;;
3046;SDS011;1533;44.816;20.420;2023-05-25T01:56:28;22.83;;;20.07;;
3046;SDS011;1533;44.816;20.420;2023-05-25T02:02:24;22.50;;;18.97;;
3046;SDS011;1533;44.816;20.420;2023-05-25T02:05:23;22.83;;;18.23;;
3046;SDS011;1533;44.816;20.420;2023-05-25T02:08:01;19.33;;;16.97;;
3046;SDS011;1533;44.816;20.420;2023-05-25T02:10:51;19.13;;;16.77;;
3046;SDS011;1533;44.816;20.420;2023-05-25T02:13:24;20.13;;;17.87;;
3046;SDS011;1533;44.816;20.420;2023-05-25T02:19:26;25.07;;;17.93;;
3046;SDS011;1533;44.816;20.420;2023-05-25T02:22:21;20.40;;;18.20;;
3046;SDS011;1533;44.816;20.420;2023-05-25T02:25:07;24.90;;;18.90;;
3046;SDS011;1533;44.816;20.420;2023-05-25T02:27:41;22.93;;;17.87;;
3046;SDS011;1533;44.816;20.420;2023-05-25T02:30:41;22.07;;;18.10;;
3046;SDS011;1533;44.816;20.420;2023-05-25T02:33:19;23.57;;;17.90;;
3046;SDS011;1533;44.816;20.420;2023-05-25T02:35:59;19.60;;;17.50;;
3046;SDS011;1533;44.816;20.420;2023-05-25T02:38:50;19.90;;;17.63;;
3046;SDS011;1533;44.816;20.420;2023-05-25T02:41:31;22.30;;;18.40;;
3046;SDS011;1533;44.816;20.420;2023-05-25T02:44:12;23.47;;;18.73;;
3046;SDS011;1533;44.816;20.420;2023-05-25T02:47:04;22.30;;;17.77;;
3046;SDS011;1533;44.816;20.420;2023-05-25T02:49:47;20.80;;;17.40;;
3046;SDS011;1533;44.816;20.420;2023-05-25T02:55:24;16.67;;;14.77;;
3046;SDS011;1533;44.816;20.420;2023-05-25T02:58:10;19.17;;;16.17;;
3046;SDS011;1533;44.816;20.420;2023-05-25T03:00:50;16.80;;;14.93;;
3046;SDS011;1533;44.816;20.420;2023-05-25T03:06:23;17.87;;;15.20;;
3046;SDS011;1533;44.816;20.420;2023-05-25T03:08:56;24.40;;;17.00;;
3046;SDS011;1533;44.816;20.420;2023-05-25T03:11:38;19.23;;;15.57;;
3046;SDS011;1533;44.816;20.420;2023-05-25T03:14:49;18.60;;;15.93;;
3046;SDS011;1533;44.816;20.420;2023-05-25T03:17:24;20.23;;;16.20;;
3046;SDS011;1533;44.816;20.420;2023-05-25T03:20:21;18.60;;;15.23;;
3046;SDS011;1533;44.816;20.420;2023-05-25T03:30:07;18.13;;;16.10;;
3046;SDS011;1533;44.816;20.420;2023-05-25T03:33:07;21.57;;;18.67;;
3046;SDS011;1533;44.816;20.420;2023-05-25T03:35:49;19.27;;;15.13;;
3046;SDS011;1533;44.816;20.420;2023-05-25T03:45:17;18.13;;;14.20;;
3046;SDS011;1533;44.816;20.420;2023-05-25T03:48:08;16.53;;;13.33;;
3046;SDS011;1533;44.816;20.420;2023-05-25T03:53:45;16.67;;;13.60;;
3046;SDS011;1533;44.816;20.420;2023-05-25T03:57:06;13.50;;;11.97;;
3046;SDS011;1533;44.816;20.420;2023-05-25T23:28:02;13.97;;;12.30;;
3046;SDS011;1533;44.816;20.420;2023-05-25T23:31:21;18.13;;;13.37;;
3046;SDS011;1533;44.816;20.420;2023-05-25T23:34:20;13.47;;;12.00;;
3046;SDS011;1533;44.816;20.420;2023-05-25T23:37:24;13.70;;;12.30;;
3046;SDS011;1533;44.816;20.420;2023-05-25T23:44:09;16.67;;;12.50;;
3046;SDS011;1533;44.816;20.420;2023-05-25T23:51:02;16.43;;;12.43;;
3046;SDS011;1533;44.816;20.420;2023-05-25T23:54:10;13.70;;;12.23;;
